createdAt,value
2023-04-15T00:01:38.065Z,100.00
2023-04-15T00:04:06.012Z,100.00
2023-04-15T00:06:33.622Z,100.00
2023-04-15T00:09:01.819Z,100.00
2023-04-15T00:11:30.326Z,100.00
2023-04-15T00:13:58.608Z,100.00
2023-04-15T00:16:26.742Z,100.00
2023-04-15T00:18:54.851Z,100.00
2023-04-15T00:21:22.359Z,100.00
2023-04-15T00:23:52.728Z,100.00
2023-04-15T00:26:20.920Z,100.00
2023-04-15T00:28:48.947Z,100.00
2023-04-15T00:31:16.747Z,100.00
2023-04-15T00:33:44.775Z,100.00
2023-04-15T00:36:12.221Z,100.00
2023-04-15T00:38:39.702Z,100.00
2023-04-15T00:41:07.938Z,100.00
2023-04-15T00:43:35.490Z,100.00
2023-04-15T00:46:05.998Z,100.00
2023-04-15T00:48:33.916Z,100.00
2023-04-15T00:51:02.029Z,100.00
2023-04-15T00:53:29.530Z,100.00
2023-04-15T00:55:57.297Z,100.00
2023-04-15T00:58:25.071Z,100.00
2023-04-15T01:00:54.483Z,100.00
2023-04-15T01:03:22.801Z,100.00
2023-04-15T01:05:51.098Z,100.00
2023-04-15T01:08:18.830Z,100.00
2023-04-15T01:10:46.892Z,100.00
2023-04-15T01:13:14.309Z,100.00
2023-04-15T01:15:42.803Z,100.00
2023-04-15T01:18:11.100Z,100.00
2023-04-15T01:20:38.955Z,100.00
2023-04-15T01:23:06.491Z,100.00
2023-04-15T01:25:34.811Z,100.00
2023-04-15T01:28:03.353Z,100.00
2023-04-15T01:30:35.583Z,100.00
2023-04-15T01:33:03.449Z,100.00
2023-04-15T01:35:31.044Z,100.00
2023-04-15T01:38:08.510Z,100.00
2023-04-15T01:40:36.321Z,100.00
2023-04-15T01:43:03.977Z,100.00
2023-04-15T01:45:31.774Z,100.00
2023-04-15T01:47:59.550Z,100.00
2023-04-15T01:50:27.163Z,100.00
2023-04-15T01:52:56.117Z,100.00
2023-04-15T01:55:24.904Z,100.00
2023-04-15T01:57:52.483Z,100.00
2023-04-15T02:00:22.381Z,100.00
2023-04-15T02:02:50.735Z,100.00
2023-04-15T02:05:18.194Z,100.00
2023-04-15T02:07:48.618Z,100.00
2023-04-15T02:10:16.866Z,100.00
2023-04-15T02:12:44.404Z,100.00
2023-04-15T02:15:12.205Z,100.00
2023-04-15T02:17:40.046Z,100.00
2023-04-15T02:20:08.955Z,100.00
2023-04-15T02:22:36.489Z,100.00
2023-04-15T02:25:04.515Z,100.00
2023-04-15T02:27:32.977Z,100.00
2023-04-15T02:30:00.613Z,100.00
2023-04-15T02:32:29.214Z,100.00
2023-04-15T02:34:56.741Z,100.00
2023-04-15T02:37:27.258Z,100.00
2023-04-15T02:39:56.223Z,100.00
2023-04-15T02:42:23.782Z,100.00
2023-04-15T02:44:51.318Z,100.00
2023-04-15T02:47:19.222Z,100.00
2023-04-15T02:49:46.745Z,100.00
2023-04-15T02:52:15.026Z,100.00
2023-04-15T02:54:42.798Z,100.00
2023-04-15T02:57:11.703Z,100.00
2023-04-15T02:59:39.526Z,100.00
2023-04-15T03:02:08.597Z,100.00
2023-04-15T03:04:36.269Z,100.00
2023-04-15T03:07:04.773Z,100.00
2023-04-15T03:09:33.198Z,100.00
2023-04-15T03:12:02.712Z,100.00
2023-04-15T03:14:30.514Z,100.00
2023-04-15T03:16:59.497Z,100.00
2023-04-15T03:19:26.918Z,100.00
2023-04-15T03:21:54.386Z,100.00
2023-04-15T03:24:22.330Z,100.00
2023-04-15T03:26:49.796Z,100.00
2023-04-15T03:29:17.422Z,100.00
2023-04-15T03:31:45.606Z,100.00
2023-04-15T03:34:13.006Z,100.00
2023-04-15T03:36:40.680Z,100.00
2023-04-15T03:39:08.848Z,100.00
2023-04-15T03:41:36.430Z,100.00
2023-04-15T03:44:04.413Z,100.00
2023-04-15T03:46:32.387Z,100.00
2023-04-15T03:49:00.064Z,100.00
2023-04-15T03:51:28.400Z,100.00
2023-04-15T03:53:56.120Z,100.00
2023-04-15T03:56:23.489Z,100.00
2023-04-15T03:58:51.181Z,100.00
2023-04-15T04:01:19.516Z,100.00
2023-04-15T04:03:47.484Z,100.00
2023-04-15T04:06:15.737Z,100.00
2023-04-15T04:08:43.601Z,100.00
2023-04-15T04:11:11.723Z,100.00
2023-04-15T04:13:39.203Z,100.00
2023-04-15T04:16:07.177Z,100.00
2023-04-15T04:18:35.025Z,100.00
2023-04-15T04:21:02.829Z,100.00
2023-04-15T04:23:30.539Z,100.00
2023-04-15T04:25:58.274Z,100.00
2023-04-15T04:28:25.857Z,100.00
2023-04-15T04:30:53.280Z,100.00
2023-04-15T04:33:21.017Z,100.00
2023-04-15T04:35:48.461Z,100.00
2023-04-15T04:38:16.003Z,100.00
2023-04-15T04:40:43.822Z,100.00
2023-04-15T04:43:11.345Z,100.00
2023-04-15T04:45:38.800Z,100.00
2023-04-15T04:48:08.678Z,100.00
2023-04-15T04:50:36.970Z,100.00
2023-04-15T04:53:04.450Z,100.00
2023-04-15T04:55:32.433Z,100.00
2023-04-15T04:58:00.049Z,100.00
2023-04-15T05:00:27.518Z,100.00
2023-04-15T05:02:55.613Z,100.00
2023-04-15T05:05:23.210Z,100.00
2023-04-15T05:07:50.932Z,100.00
2023-04-15T05:10:18.736Z,100.00
2023-04-15T05:12:46.293Z,100.00
2023-04-15T05:15:13.721Z,100.00
2023-04-15T05:17:41.604Z,100.00
2023-04-15T05:20:09.761Z,100.00
2023-04-15T05:22:37.465Z,100.00
2023-04-15T05:25:05.520Z,100.00
2023-04-15T05:27:33.039Z,100.00
2023-04-15T05:30:00.559Z,100.00
2023-04-15T05:32:28.375Z,100.00
2023-04-15T05:34:55.861Z,100.00
2023-04-15T05:37:23.333Z,100.00
2023-04-15T05:39:51.196Z,100.00
2023-04-15T05:42:18.661Z,100.00
2023-04-15T05:44:46.169Z,100.00
2023-04-15T05:47:13.988Z,100.00
2023-04-15T05:49:41.431Z,100.00
2023-04-15T05:52:09.006Z,100.00
2023-04-15T05:54:37.254Z,100.00
2023-04-15T05:57:04.753Z,100.00
2023-04-15T05:59:32.714Z,100.00
2023-04-15T06:02:00.582Z,100.00
2023-04-15T06:04:28.725Z,100.00
2023-04-15T06:06:56.239Z,100.00
2023-04-15T06:09:23.866Z,99.63
2023-04-15T06:11:52.399Z,99.80
2023-04-15T06:14:19.941Z,99.56
2023-04-15T06:16:47.368Z,99.32
2023-04-15T06:19:16.024Z,97.76
2023-04-15T06:21:44.423Z,96.53
2023-04-15T06:24:12.499Z,97.07
2023-04-15T06:26:40.201Z,95.99
2023-04-15T06:29:07.594Z,95.33
2023-04-15T06:31:35.056Z,94.64
2023-04-15T06:34:02.922Z,94.36
2023-04-15T06:36:30.504Z,95.03
2023-04-15T06:38:58.222Z,92.85
2023-04-15T06:41:26.169Z,93.29
2023-04-15T06:43:53.934Z,91.51
2023-04-15T06:46:21.445Z,90.91
2023-04-15T06:48:49.491Z,90.76
2023-04-15T06:51:16.917Z,89.53
2023-04-15T06:53:48.914Z,89.75
2023-04-15T06:56:16.604Z,89.40
2023-04-15T06:58:44.022Z,90.23
2023-04-15T07:01:12.278Z,89.99
2023-04-15T07:03:40.074Z,89.85
2023-04-15T07:06:08.783Z,89.23
2023-04-15T07:08:36.433Z,89.59
2023-04-15T07:11:04.411Z,89.04
2023-04-15T07:13:32.890Z,88.32
2023-04-15T07:16:00.843Z,87.23
2023-04-15T07:18:28.666Z,86.04
2023-04-15T07:20:56.240Z,85.52
2023-04-15T07:23:23.698Z,85.26
2023-04-15T07:25:52.257Z,84.98
2023-04-15T07:28:19.702Z,84.58
2023-04-15T07:30:47.172Z,84.19
2023-04-15T07:33:15.799Z,84.67
2023-04-15T07:35:43.587Z,84.16
2023-04-15T07:38:13.604Z,84.54
2023-04-15T07:40:42.447Z,84.61
2023-04-15T07:43:10.849Z,84.09
2023-04-15T07:45:38.481Z,83.57
2023-04-15T07:48:06.881Z,82.93
2023-04-15T07:50:34.338Z,81.49
2023-04-15T07:53:01.806Z,82.56
2023-04-15T07:55:30.701Z,81.83
2023-04-15T07:57:58.217Z,80.18
2023-04-15T08:00:26.906Z,76.47
2023-04-15T08:02:57.578Z,75.78
2023-04-15T08:05:25.938Z,75.63
2023-04-15T08:07:53.440Z,73.71
2023-04-15T08:10:21.495Z,72.81
2023-04-15T08:12:49.587Z,71.81
2023-04-15T08:15:17.700Z,73.60
2023-04-15T08:17:45.603Z,73.39
2023-04-15T08:20:13.479Z,72.53
2023-04-15T08:22:41.585Z,72.50
2023-04-15T08:25:10.293Z,71.22
2023-04-15T08:27:37.819Z,70.88
2023-04-15T08:30:06.072Z,70.92
2023-04-15T08:32:33.912Z,68.78
2023-04-15T08:35:01.821Z,67.16
2023-04-15T08:37:29.439Z,67.05
2023-04-15T08:39:57.275Z,66.25
2023-04-15T08:42:37.474Z,64.76
2023-04-15T08:45:05.938Z,64.64
2023-04-15T08:47:34.393Z,67.13
2023-04-15T08:50:04.434Z,69.34
2023-04-15T08:52:32.631Z,66.52
2023-04-15T08:55:01.044Z,66.38
2023-04-15T08:57:29.502Z,65.78
2023-04-15T08:59:57.746Z,66.08
2023-04-15T09:02:27.387Z,66.46
2023-04-15T09:04:55.174Z,66.69
2023-04-15T09:07:22.925Z,63.80
2023-04-15T09:09:51.503Z,66.23
2023-04-15T09:12:18.985Z,63.79
2023-04-15T09:14:48.159Z,62.88
2023-04-15T09:17:20.630Z,64.47
2023-04-15T09:19:48.736Z,61.79
2023-04-15T09:22:16.668Z,62.45
2023-04-15T09:24:44.200Z,63.46
2023-04-15T09:27:16.320Z,62.93
2023-04-15T09:29:43.725Z,62.21
2023-04-15T09:32:15.641Z,61.16
2023-04-15T09:34:44.560Z,57.48
2023-04-15T09:37:24.640Z,60.06
2023-04-15T09:39:59.201Z,58.31
2023-04-15T09:42:28.050Z,58.56
2023-04-15T09:44:55.580Z,56.96
2023-04-15T09:47:32.905Z,56.56
2023-04-15T09:50:01.705Z,57.94
2023-04-15T09:52:30.362Z,59.36
2023-04-15T09:54:59.399Z,56.78
2023-04-15T09:57:36.237Z,56.57
2023-04-15T10:00:09.047Z,57.12
2023-04-15T10:02:39.960Z,58.92
2023-04-15T10:05:10.836Z,55.11
2023-04-15T10:07:41.159Z,55.41
2023-04-15T10:10:09.614Z,55.44
2023-04-15T10:12:41.746Z,55.46
2023-04-15T10:15:16.534Z,55.77
2023-04-15T10:17:44.991Z,55.98
2023-04-15T10:20:15.037Z,54.27
2023-04-15T10:22:46.651Z,54.54
2023-04-15T10:25:15.972Z,55.81
2023-04-15T10:27:43.630Z,55.06
2023-04-15T10:30:12.226Z,53.77
2023-04-15T10:32:40.964Z,52.21
2023-04-15T10:35:09.571Z,51.66
2023-04-15T10:37:38.611Z,52.01
2023-04-15T10:40:36.020Z,52.86
2023-04-15T10:43:03.868Z,50.61
2023-04-15T10:45:39.700Z,51.22
2023-04-15T10:48:08.560Z,51.89
2023-04-15T10:50:37.735Z,53.37
2023-04-15T10:53:05.683Z,52.16
2023-04-15T10:55:34.106Z,51.82
2023-04-15T10:58:03.075Z,51.39
2023-04-15T11:00:32.767Z,50.24
2023-04-15T11:03:07.909Z,50.97
2023-04-15T11:05:41.633Z,50.00
2023-04-15T11:08:10.765Z,51.84
2023-04-15T11:10:38.585Z,52.19
2023-04-15T11:13:17.208Z,52.87
2023-04-15T11:15:46.153Z,51.33
2023-04-15T11:18:16.629Z,51.81
2023-04-15T11:20:50.534Z,50.83
2023-04-15T11:23:20.123Z,51.50
2023-04-15T11:25:48.744Z,51.13
2023-04-15T11:28:16.568Z,50.23
2023-04-15T11:30:44.755Z,51.73
2023-04-15T11:33:13.811Z,51.17
2023-04-15T11:35:42.409Z,51.70
2023-04-15T11:38:12.384Z,53.45
2023-04-15T11:40:41.009Z,53.47
2023-04-15T11:43:10.490Z,54.77
2023-04-15T11:45:48.157Z,55.98
2023-04-15T11:48:15.892Z,55.27
2023-04-15T11:50:43.769Z,56.37
2023-04-15T11:53:13.335Z,57.22
2023-04-15T11:55:46.375Z,58.27
2023-04-15T11:58:23.382Z,57.37
2023-04-15T12:00:55.501Z,58.69
2023-04-15T12:03:30.607Z,59.21
2023-04-15T12:06:03.785Z,60.13
2023-04-15T12:09:10.123Z,59.89
2023-04-15T12:11:53.072Z,60.72
2023-04-15T12:14:26.552Z,56.68
2023-04-15T12:16:58.105Z,53.28
2023-04-15T12:19:30.571Z,52.75
2023-04-15T12:22:18.623Z,55.95
2023-04-15T12:24:48.766Z,53.49
2023-04-15T12:27:17.400Z,50.93
2023-04-15T12:29:45.154Z,51.35
2023-04-15T12:32:15.147Z,50.36
2023-04-15T12:34:45.678Z,49.69
2023-04-15T12:37:14.409Z,52.56
2023-04-15T12:39:44.387Z,46.76
2023-04-15T12:42:13.021Z,48.07
2023-04-15T12:44:40.741Z,48.31
2023-04-15T12:47:09.563Z,45.85
2023-04-15T12:49:37.802Z,46.18
2023-04-15T12:52:05.776Z,46.29
2023-04-15T12:54:33.462Z,47.12
2023-04-15T12:57:01.121Z,48.17
2023-04-15T12:59:29.200Z,48.20
2023-04-15T13:01:57.060Z,48.08
2023-04-15T13:04:24.839Z,46.86
2023-04-15T13:06:52.736Z,46.16
2023-04-15T13:09:20.226Z,49.35
2023-04-15T13:11:47.712Z,47.69
2023-04-15T13:14:15.817Z,48.82
2023-04-15T13:16:43.292Z,50.46
2023-04-15T13:19:10.811Z,50.43
2023-04-15T13:21:38.641Z,50.71
2023-04-15T13:24:07.490Z,50.57
2023-04-15T13:26:35.174Z,51.30
2023-04-15T13:29:02.989Z,52.19
2023-04-15T13:31:31.170Z,52.58
2023-04-15T13:33:58.589Z,52.79
2023-04-15T13:36:27.320Z,53.19
2023-04-15T13:38:54.868Z,53.11
2023-04-15T13:41:22.282Z,54.19
2023-04-15T13:43:50.000Z,55.48
2023-04-15T13:46:17.555Z,54.57
2023-04-15T13:48:45.595Z,54.98
2023-04-15T13:51:13.289Z,54.37
2023-04-15T13:53:41.095Z,54.69
2023-04-15T13:56:09.149Z,54.66
2023-04-15T13:58:38.078Z,54.80
2023-04-15T14:01:07.107Z,54.85
2023-04-15T14:03:36.599Z,54.75
2023-04-15T14:06:05.751Z,56.11
2023-04-15T14:08:33.888Z,55.85
2023-04-15T14:11:01.725Z,55.52
2023-04-15T14:13:29.506Z,55.82
2023-04-15T14:15:57.464Z,54.06
2023-04-15T14:18:25.623Z,54.66
2023-04-15T14:20:53.538Z,54.62
2023-04-15T14:23:21.029Z,55.45
2023-04-15T14:25:48.838Z,56.12
2023-04-15T14:28:16.780Z,55.89
2023-04-15T14:30:44.376Z,55.83
2023-04-15T14:33:12.670Z,56.05
2023-04-15T14:35:40.140Z,57.95
2023-04-15T14:38:10.827Z,57.68
2023-04-15T14:40:39.053Z,58.10
2023-04-15T14:43:06.599Z,59.12
2023-04-15T14:45:34.843Z,57.20
2023-04-15T14:48:03.078Z,58.35
2023-04-15T14:50:30.570Z,57.87
2023-04-15T14:52:58.892Z,58.57
2023-04-15T14:55:26.679Z,58.85
2023-04-15T14:57:54.133Z,58.81
2023-04-15T15:00:21.666Z,57.45
2023-04-15T15:02:49.659Z,57.64
2023-04-15T15:05:17.638Z,58.09
2023-04-15T15:07:45.310Z,56.35
2023-04-15T15:10:13.224Z,56.90
2023-04-15T15:12:40.952Z,57.00
2023-04-15T15:15:24.920Z,56.70
2023-04-15T15:17:56.810Z,57.19
2023-04-15T15:20:24.994Z,55.96
2023-04-15T15:22:52.512Z,55.68
2023-04-15T15:25:20.477Z,57.30
2023-04-15T15:27:48.043Z,57.13
2023-04-15T15:30:15.688Z,56.81
2023-04-15T15:32:43.780Z,55.18
2023-04-15T15:35:11.560Z,55.85
2023-04-15T15:37:39.037Z,57.70
2023-04-15T15:40:07.930Z,57.70
2023-04-15T15:42:36.036Z,57.47
2023-04-15T15:45:04.714Z,56.84
2023-04-15T15:47:32.498Z,58.27
2023-04-15T15:50:02.335Z,59.09
2023-04-15T15:52:31.287Z,59.12
2023-04-15T15:54:58.995Z,59.09
2023-04-15T15:57:26.495Z,59.58
2023-04-15T16:00:04.753Z,59.36
2023-04-15T16:03:04.509Z,59.65
2023-04-15T16:05:25.865Z,59.65
2023-04-15T16:07:53.582Z,60.21
2023-04-15T16:10:21.054Z,61.54
2023-04-15T16:12:49.697Z,61.13
2023-04-15T16:15:17.191Z,61.87
2023-04-15T16:17:44.629Z,62.48
2023-04-15T16:20:12.415Z,62.74
2023-04-15T16:22:39.956Z,62.54
2023-04-15T16:25:07.590Z,63.52
2023-04-15T16:27:43.500Z,64.24
2023-04-15T16:30:22.227Z,64.82
2023-04-15T16:32:50.231Z,64.50
2023-04-15T16:35:18.201Z,64.32
2023-04-15T16:37:45.872Z,65.02
2023-04-15T16:40:13.755Z,64.30
2023-04-15T16:42:43.722Z,64.28
2023-04-15T16:45:11.660Z,66.71
2023-04-15T16:47:39.535Z,68.33
2023-04-15T16:50:07.945Z,66.78
2023-04-15T16:52:36.081Z,66.31
2023-04-15T16:55:05.190Z,66.32
2023-04-15T16:57:50.653Z,66.76
2023-04-15T17:00:20.874Z,67.42
2023-04-15T17:02:48.692Z,67.75
2023-04-15T17:05:16.203Z,68.84
2023-04-15T17:07:43.998Z,68.84
2023-04-15T17:10:13.779Z,69.71
2023-04-15T17:12:41.733Z,70.83
2023-04-15T17:15:09.960Z,73.45
2023-04-15T17:17:37.426Z,72.80
2023-04-15T17:20:05.610Z,71.98
2023-04-15T17:22:34.197Z,71.51
2023-04-15T17:25:01.978Z,71.54
2023-04-15T17:27:30.226Z,71.99
2023-04-15T17:29:58.007Z,72.71
2023-04-15T17:32:30.677Z,74.19
2023-04-15T17:34:58.523Z,74.41
2023-04-15T17:37:26.794Z,74.67
2023-04-15T17:39:54.345Z,74.83
2023-04-15T17:42:22.980Z,77.17
2023-04-15T17:44:51.093Z,76.94
2023-04-15T17:47:19.217Z,77.63
2023-04-15T17:49:47.754Z,78.00
2023-04-15T17:52:15.634Z,77.82
2023-04-15T17:54:43.329Z,77.92
2023-04-15T17:57:11.405Z,78.79
2023-04-15T17:59:43.867Z,79.89
2023-04-15T18:02:12.118Z,80.08
2023-04-15T18:04:40.583Z,79.79
2023-04-15T18:07:08.486Z,79.81
2023-04-15T18:09:36.711Z,79.59
2023-04-15T18:12:07.534Z,78.58
2023-04-15T18:14:36.341Z,79.08
2023-04-15T18:17:04.893Z,79.91
2023-04-15T18:19:32.952Z,79.40
2023-04-15T18:22:00.964Z,79.77
2023-04-15T18:24:30.041Z,79.88
2023-04-15T18:26:57.714Z,80.56
2023-04-15T18:29:25.612Z,80.35
2023-04-15T18:31:54.582Z,81.11
2023-04-15T18:34:22.140Z,81.59
2023-04-15T18:36:49.899Z,81.91
2023-04-15T18:39:18.032Z,81.01
2023-04-15T18:41:46.066Z,81.74
2023-04-15T18:44:13.547Z,81.18
2023-04-15T18:46:41.527Z,80.89
2023-04-15T18:49:09.982Z,80.65
2023-04-15T18:51:38.542Z,80.47
2023-04-15T18:54:06.624Z,79.77
2023-04-15T18:56:34.917Z,79.09
2023-04-15T18:59:09.533Z,79.32
2023-04-15T19:01:51.614Z,78.93
2023-04-15T19:04:20.507Z,79.44
2023-04-15T19:06:48.410Z,80.59
2023-04-15T19:09:16.920Z,80.42
2023-04-15T19:11:44.874Z,80.45
2023-04-15T19:14:12.546Z,79.61
2023-04-15T19:16:40.618Z,79.73
2023-04-15T19:19:08.142Z,79.77
2023-04-15T19:21:36.380Z,80.63
2023-04-15T19:24:04.312Z,81.14
2023-04-15T19:26:32.161Z,82.62
2023-04-15T19:28:59.754Z,82.69
2023-04-15T19:31:27.973Z,83.14
2023-04-15T19:33:55.736Z,84.20
2023-04-15T19:36:23.406Z,84.85
2023-04-15T19:38:51.534Z,85.01
2023-04-15T19:41:19.531Z,85.30
2023-04-15T19:43:47.001Z,85.99
2023-04-15T19:46:14.948Z,86.75
2023-04-15T19:48:43.029Z,85.53
2023-04-15T19:51:12.353Z,84.61
2023-04-15T19:53:41.412Z,85.33
2023-04-15T19:56:09.592Z,90.51
2023-04-15T19:58:37.700Z,87.81
2023-04-15T20:01:05.856Z,87.22
2023-04-15T20:03:35.357Z,86.81
2023-04-15T20:06:03.493Z,87.06
2023-04-15T20:08:31.377Z,86.26
2023-04-15T20:11:01.170Z,86.39
2023-04-15T20:13:29.097Z,86.60
2023-04-15T20:15:56.840Z,86.60
2023-04-15T20:18:24.878Z,87.59
2023-04-15T20:20:52.481Z,89.73
2023-04-15T20:23:20.612Z,89.71
2023-04-15T20:25:48.722Z,90.63
2023-04-15T20:28:18.857Z,91.61
2023-04-15T20:30:47.255Z,91.36
2023-04-15T20:33:15.023Z,92.40
2023-04-15T20:35:42.646Z,93.10
2023-04-15T20:38:10.620Z,93.16
2023-04-15T20:40:39.470Z,94.52
2023-04-15T20:43:08.580Z,95.18
2023-04-15T20:45:36.583Z,95.58
2023-04-15T20:48:05.030Z,96.20
2023-04-15T20:50:32.734Z,96.13
2023-04-15T20:53:00.311Z,96.44
2023-04-15T20:55:30.233Z,96.69
2023-04-15T20:57:59.231Z,96.56
2023-04-15T21:00:26.773Z,97.57
2023-04-15T21:02:54.955Z,99.16
2023-04-15T21:05:22.442Z,98.40
2023-04-15T21:07:50.185Z,97.93
2023-04-15T21:10:18.179Z,97.02
2023-04-15T21:12:46.180Z,97.95
2023-04-15T21:15:13.853Z,98.14
2023-04-15T21:17:41.909Z,98.77
2023-04-15T21:20:10.004Z,98.46
2023-04-15T21:22:37.487Z,97.77
2023-04-15T21:25:05.729Z,97.60
2023-04-15T21:27:33.160Z,98.08
2023-04-15T21:30:00.787Z,98.82
2023-04-15T21:32:30.497Z,98.39
2023-04-15T21:34:58.036Z,98.25
2023-04-15T21:37:25.768Z,98.78
2023-04-15T21:39:53.515Z,98.77
2023-04-15T21:42:21.072Z,97.59
2023-04-15T21:44:48.545Z,97.40
2023-04-15T21:47:16.289Z,96.54
2023-04-15T21:49:44.086Z,96.13
2023-04-15T21:52:11.700Z,96.00
2023-04-15T21:54:39.410Z,95.21
2023-04-15T21:57:06.909Z,93.59
2023-04-15T21:59:34.703Z,92.27
2023-04-15T22:02:02.490Z,91.35
2023-04-15T22:04:30.570Z,91.48
2023-04-15T22:07:01.678Z,91.47
2023-04-15T22:09:29.311Z,91.64
2023-04-15T22:11:59.452Z,91.47
2023-04-15T22:14:28.432Z,91.39
2023-04-15T22:16:56.669Z,91.88
2023-04-15T22:19:25.923Z,91.90
2023-04-15T22:21:53.408Z,92.75
2023-04-15T22:24:34.082Z,93.24
2023-04-15T22:27:08.626Z,93.70
2023-04-15T22:29:36.227Z,93.69
2023-04-15T22:32:03.723Z,93.72
2023-04-15T22:34:31.461Z,93.68
2023-04-15T22:36:58.873Z,93.75
2023-04-15T22:39:26.592Z,93.54
2023-04-15T22:41:54.295Z,93.42
2023-04-15T22:44:21.758Z,92.66
2023-04-15T22:46:51.726Z,91.78
2023-04-15T22:49:19.485Z,91.49
2023-04-15T22:51:47.079Z,90.90
2023-04-15T22:54:14.549Z,90.95
2023-04-15T22:56:42.415Z,91.92
2023-04-15T22:59:10.100Z,92.42
2023-04-15T23:01:38.396Z,92.49
2023-04-15T23:04:08.478Z,92.73
2023-04-15T23:06:53.174Z,92.99
2023-04-15T23:09:21.556Z,93.13
2023-04-15T23:11:49.441Z,93.37
2023-04-15T23:14:16.839Z,93.66
2023-04-15T23:16:45.652Z,93.91
2023-04-15T23:19:13.863Z,94.02
2023-04-15T23:21:41.552Z,93.96
2023-04-15T23:24:09.760Z,94.29
2023-04-15T23:26:37.210Z,94.80
2023-04-15T23:29:05.108Z,94.71
2023-04-15T23:31:33.124Z,94.65
2023-04-15T23:34:01.146Z,94.39
2023-04-15T23:36:28.642Z,94.12
2023-04-15T23:38:56.344Z,93.84
2023-04-15T23:41:23.828Z,93.92
2023-04-15T23:43:51.478Z,94.14
2023-04-15T23:46:19.229Z,94.22
2023-04-15T23:48:47.872Z,94.77
2023-04-15T23:51:16.536Z,94.87
2023-04-15T23:53:44.666Z,95.14
2023-04-15T23:56:12.043Z,95.66
2023-04-15T23:58:39.553Z,96.11
